createdAt,value
2024-01-20T00:04:09.061Z,77.02
2024-01-20T00:09:14.940Z,77.22
2024-01-20T00:14:17.065Z,76.72
2024-01-20T00:19:19.965Z,76.82
2024-01-20T00:24:22.134Z,76.68
2024-01-20T00:29:24.242Z,76.12
2024-01-20T00:34:26.413Z,76.25
2024-01-20T00:39:28.346Z,75.40
2024-01-20T00:44:30.287Z,75.49
2024-01-20T00:49:32.286Z,75.92
2024-01-20T00:54:34.262Z,75.91
2024-01-20T00:59:36.252Z,75.68
2024-01-20T01:04:38.166Z,76.05
2024-01-20T01:09:40.124Z,76.27
2024-01-20T01:14:42.035Z,76.62
2024-01-20T01:19:44.753Z,76.34
2024-01-20T01:24:46.806Z,76.16
2024-01-20T01:29:48.757Z,76.17
2024-01-20T01:34:50.617Z,76.22
2024-01-20T01:39:52.568Z,77.10
2024-01-20T01:44:55.840Z,76.91
2024-01-20T01:49:58.035Z,77.54
2024-01-20T01:55:00.540Z,77.63
2024-01-20T02:00:05.726Z,77.53
2024-01-20T02:05:07.822Z,77.60
2024-01-20T02:10:12.089Z,78.08
2024-01-20T02:15:15.854Z,77.66
2024-01-20T02:20:18.026Z,77.74
2024-01-20T02:25:20.267Z,78.24
2024-01-20T02:30:22.528Z,78.40
2024-01-20T02:35:24.451Z,78.92
2024-01-20T02:40:27.760Z,78.65
2024-01-20T02:45:29.770Z,78.83
2024-01-20T02:50:32.465Z,79.13
2024-01-20T02:55:34.453Z,79.00
2024-01-20T03:00:36.544Z,79.43
2024-01-20T03:05:38.574Z,79.41
2024-01-20T03:10:40.526Z,79.61
2024-01-20T03:15:42.616Z,79.48
2024-01-20T03:20:45.177Z,79.89
2024-01-20T03:25:47.106Z,80.12
2024-01-20T03:30:49.198Z,80.19
2024-01-20T03:35:51.193Z,80.04
2024-01-20T03:40:53.296Z,80.31
2024-01-20T03:45:56.821Z,80.53
2024-01-20T03:50:58.908Z,80.53
2024-01-20T03:56:02.666Z,80.73
2024-01-20T04:01:04.951Z,80.81
2024-01-20T04:06:07.135Z,81.12
2024-01-20T04:11:09.125Z,81.31
2024-01-20T04:16:11.198Z,81.11
2024-01-20T04:21:13.103Z,81.48
2024-01-20T04:26:14.974Z,81.67
2024-01-20T04:31:16.942Z,81.96
2024-01-20T04:36:18.790Z,81.67
2024-01-20T04:41:21.004Z,81.93
2024-01-20T04:46:23.135Z,81.60
2024-01-20T04:51:25.557Z,81.84
2024-01-20T04:56:27.727Z,81.47
2024-01-20T05:01:29.876Z,81.44
2024-01-20T05:06:32.537Z,81.06
2024-01-20T05:11:34.697Z,81.15
2024-01-20T05:16:38.018Z,81.17
2024-01-20T05:21:45.517Z,81.22
2024-01-20T05:26:57.464Z,81.07
2024-01-20T05:32:00.254Z,81.06
2024-01-20T05:37:16.560Z,81.35
2024-01-20T05:42:20.047Z,81.09
2024-01-20T05:47:22.976Z,81.23
2024-01-20T05:52:33.476Z,81.58
2024-01-20T06:04:25.122Z,81.98
2024-01-20T06:09:27.880Z,81.74
2024-01-20T06:14:34.773Z,81.70
2024-01-20T06:19:40.931Z,81.94
2024-01-20T06:24:49.483Z,82.17
2024-01-20T06:29:51.919Z,82.20
2024-01-20T06:34:54.193Z,82.24
2024-01-20T06:47:40.738Z,82.32
2024-01-20T06:52:43.796Z,82.10
2024-01-20T06:57:46.401Z,81.49
2024-01-20T07:02:49.064Z,81.38
2024-01-20T07:07:51.645Z,80.54
2024-01-20T07:12:55.513Z,80.11
2024-01-20T07:18:02.414Z,79.42
2024-01-20T07:23:05.282Z,79.80
2024-01-20T07:28:08.253Z,79.38
2024-01-20T07:33:10.963Z,78.79
2024-01-20T07:38:16.648Z,78.57
2024-01-20T07:43:28.168Z,77.36
2024-01-20T07:48:30.904Z,77.50
2024-01-20T07:53:33.462Z,76.71
2024-01-20T07:58:39.528Z,76.76
2024-01-20T08:03:41.913Z,75.18
2024-01-20T08:08:56.240Z,75.78
2024-01-20T08:14:01.664Z,75.07
2024-01-20T08:19:04.481Z,74.88
2024-01-20T08:24:10.963Z,73.59
2024-01-20T08:29:13.964Z,73.43
2024-01-20T08:34:16.444Z,73.13
2024-01-20T08:39:20.150Z,72.98
2024-01-20T08:44:22.229Z,72.57
2024-01-20T08:49:24.478Z,72.28
2024-01-20T08:54:26.424Z,72.04
2024-01-20T08:59:28.556Z,71.88
2024-01-20T09:04:31.088Z,72.28
2024-01-20T09:09:35.212Z,71.37
2024-01-20T09:14:37.882Z,71.20
2024-01-20T09:19:40.277Z,71.10
2024-01-20T09:24:42.401Z,70.46
2024-01-20T09:29:44.256Z,69.88
2024-01-20T09:34:46.694Z,70.15
2024-01-20T09:39:48.483Z,69.80
2024-01-20T09:44:52.219Z,69.31
2024-01-20T09:49:54.884Z,68.75
2024-01-20T09:55:20.479Z,67.27
2024-01-20T10:00:24.984Z,66.02
2024-01-20T10:05:29.932Z,64.54
2024-01-20T10:10:32.995Z,63.61
2024-01-20T10:15:35.500Z,62.89
2024-01-20T10:20:38.409Z,61.86
2024-01-20T10:25:40.286Z,60.88
2024-01-20T10:30:42.821Z,60.82
2024-01-20T10:35:45.114Z,60.58
2024-01-20T10:40:51.608Z,60.86
2024-01-20T10:46:06.046Z,61.30
2024-01-20T10:51:12.714Z,62.00
2024-01-20T10:56:15.671Z,61.80
2024-01-20T11:01:18.955Z,62.19
2024-01-20T11:06:26.421Z,63.54
2024-01-20T11:11:29.889Z,64.07
2024-01-20T11:16:33.544Z,64.06
2024-01-20T11:21:35.666Z,64.73
2024-01-20T11:26:39.275Z,65.99
2024-01-20T11:31:48.084Z,66.30
2024-01-20T11:36:51.212Z,67.55
2024-01-20T11:42:00.879Z,67.88
2024-01-20T11:47:03.430Z,68.23
2024-01-20T11:52:06.026Z,68.55
2024-01-20T11:57:08.437Z,67.66
2024-01-20T12:02:10.492Z,67.07
2024-01-20T12:07:12.917Z,67.53
2024-01-20T12:12:16.024Z,67.50
2024-01-20T12:17:23.314Z,67.98
2024-01-20T12:22:25.324Z,68.37
2024-01-20T12:27:28.485Z,68.29
2024-01-20T12:32:30.753Z,67.55
2024-01-20T12:37:32.605Z,67.70
2024-01-20T12:42:37.655Z,67.39
2024-01-20T12:47:40.867Z,68.01
2024-01-20T12:52:43.780Z,67.96
2024-01-20T12:57:45.963Z,67.52
2024-01-20T13:02:48.044Z,67.49
2024-01-20T13:07:50.445Z,67.66
2024-01-20T13:12:52.286Z,67.36
2024-01-20T13:17:57.183Z,66.77
2024-01-20T13:22:59.505Z,66.20
2024-01-20T13:28:01.775Z,66.38
2024-01-20T13:33:04.797Z,66.38
2024-01-20T13:38:07.124Z,66.38
2024-01-20T13:43:09.517Z,66.83
2024-01-20T13:48:12.223Z,66.49
2024-01-20T13:53:14.823Z,67.00
2024-01-20T13:58:19.954Z,67.12
2024-01-20T14:03:22.465Z,67.19
2024-01-20T14:08:25.169Z,67.95
2024-01-20T14:13:27.340Z,68.34
2024-01-20T14:18:29.947Z,68.44
2024-01-20T14:23:32.036Z,68.63
2024-01-20T14:28:34.454Z,68.70
2024-01-20T14:33:45.683Z,68.99
2024-01-20T14:38:48.251Z,68.94
2024-01-20T14:43:50.172Z,69.02
2024-01-20T14:48:52.359Z,69.57
2024-01-20T14:53:55.262Z,69.53
2024-01-20T14:58:57.618Z,69.87
2024-01-20T15:04:00.812Z,69.96
2024-01-20T15:09:04.206Z,70.50
2024-01-20T15:14:09.298Z,70.64
2024-01-20T15:19:11.362Z,70.39
2024-01-20T15:24:13.436Z,71.57
2024-01-20T15:29:16.363Z,71.05
2024-01-20T15:34:19.108Z,71.94
2024-01-20T15:39:22.844Z,71.37
2024-01-20T15:44:25.237Z,71.83
2024-01-20T15:49:27.894Z,72.27
2024-01-20T15:54:30.251Z,72.86
2024-01-20T15:59:32.539Z,72.74
2024-01-20T16:04:36.101Z,72.64
2024-01-20T16:09:38.186Z,73.01
2024-01-20T16:14:40.536Z,73.28
2024-01-20T16:19:42.869Z,73.49
2024-01-20T16:24:46.300Z,73.63
2024-01-20T16:29:48.297Z,73.95
2024-01-20T16:34:50.653Z,73.11
2024-01-20T16:39:53.009Z,73.37
2024-01-20T16:44:55.869Z,72.93
2024-01-20T16:49:58.418Z,73.51
2024-01-20T16:55:14.128Z,73.34
2024-01-20T17:00:22.899Z,72.66
2024-01-20T17:05:25.878Z,72.62
2024-01-20T17:10:31.546Z,73.06
2024-01-20T17:15:34.214Z,72.64
2024-01-20T17:20:36.753Z,72.67
2024-01-20T17:25:43.870Z,72.97
2024-01-20T17:30:46.126Z,72.69
2024-01-20T17:35:54.259Z,72.34
2024-01-20T17:40:57.454Z,73.30
2024-01-20T17:45:59.430Z,72.53
2024-01-20T17:51:01.603Z,72.27
2024-01-20T17:56:04.829Z,72.13
2024-01-20T18:01:07.955Z,72.45
2024-01-20T18:06:18.849Z,72.14
2024-01-20T18:11:21.775Z,72.73
2024-01-20T18:16:24.206Z,72.43
2024-01-20T18:21:26.386Z,72.37
2024-01-20T18:26:33.153Z,72.16
2024-01-20T18:31:35.335Z,72.65
2024-01-20T18:36:40.515Z,72.46
2024-01-20T18:41:42.767Z,72.59
2024-01-20T18:46:44.847Z,72.36
2024-01-20T18:51:47.028Z,72.56
2024-01-20T18:56:52.923Z,71.85
2024-01-20T19:01:55.959Z,72.11
2024-01-20T19:06:58.024Z,72.12
2024-01-20T19:12:00.311Z,72.30
2024-01-20T19:17:02.309Z,72.11
2024-01-20T19:22:04.404Z,72.60
2024-01-20T19:27:06.615Z,72.19
2024-01-20T19:32:09.636Z,72.06
2024-01-20T19:37:12.735Z,72.77
2024-01-20T19:42:14.944Z,72.48
2024-01-20T19:47:17.010Z,72.19
2024-01-20T19:52:19.171Z,72.80
2024-01-20T19:57:21.224Z,72.97
2024-01-20T20:02:26.647Z,73.53
2024-01-20T20:07:30.354Z,72.73
2024-01-20T20:12:32.826Z,73.11
2024-01-20T20:17:36.043Z,73.35
2024-01-20T20:22:38.597Z,73.58
2024-01-20T20:27:40.617Z,73.81
2024-01-20T20:32:42.869Z,73.84
2024-01-20T20:37:45.067Z,73.38
2024-01-20T20:42:47.364Z,72.46
2024-01-20T20:47:49.505Z,71.81
2024-01-20T20:52:51.580Z,71.90
2024-01-20T20:57:53.637Z,71.33
2024-01-20T21:02:55.874Z,71.43
2024-01-20T21:07:58.218Z,71.25
2024-01-20T21:13:00.979Z,71.67
2024-01-20T21:18:03.855Z,70.58
2024-01-20T21:23:06.059Z,71.27
2024-01-20T21:28:08.443Z,70.56
2024-01-20T21:33:10.510Z,70.91
2024-01-20T21:38:14.093Z,71.17
2024-01-20T21:43:15.940Z,71.41
2024-01-20T21:48:17.966Z,71.84
2024-01-20T21:53:22.254Z,71.49
2024-01-20T21:58:24.853Z,71.59
2024-01-20T22:03:27.181Z,71.89
2024-01-20T22:08:32.166Z,71.66
2024-01-20T22:13:34.109Z,71.14
2024-01-20T22:18:36.215Z,71.47
2024-01-20T22:23:38.725Z,71.32
2024-01-20T22:28:40.775Z,70.96
2024-01-20T22:33:43.049Z,70.66
2024-01-20T22:38:47.098Z,70.55
2024-01-20T22:43:53.410Z,70.37
2024-01-20T22:48:55.373Z,70.59
2024-01-20T22:53:57.525Z,70.48
2024-01-20T22:58:59.656Z,70.96
2024-01-20T23:04:03.265Z,71.22
2024-01-20T23:09:07.697Z,71.05
2024-01-20T23:14:09.840Z,71.33
2024-01-20T23:19:12.528Z,71.51
2024-01-20T23:24:14.736Z,71.26
2024-01-20T23:29:18.176Z,70.92
2024-01-20T23:34:20.130Z,70.76
2024-01-20T23:39:22.190Z,70.76
2024-01-20T23:44:24.424Z,70.55
2024-01-20T23:49:26.434Z,70.99
2024-01-20T23:54:28.619Z,70.42
2024-01-20T23:59:30.588Z,70.21
